createdAt,value
2023-05-12T00:02:42.338Z,100.00
2023-05-12T00:05:44.076Z,100.00
2023-05-12T00:08:47.808Z,100.00
2023-05-12T00:11:49.660Z,100.00
2023-05-12T00:14:51.363Z,100.00
2023-05-12T00:17:54.588Z,100.00
2023-05-12T00:20:56.230Z,100.00
2023-05-12T00:23:58.261Z,100.00
2023-05-12T00:27:03.554Z,100.00
2023-05-12T00:30:06.129Z,100.00
2023-05-12T00:33:09.417Z,100.00
2023-05-12T00:36:11.775Z,100.00
2023-05-12T00:39:13.657Z,100.00
2023-05-12T00:42:15.332Z,100.00
2023-05-12T00:45:17.318Z,100.00
2023-05-12T00:48:20.596Z,100.00
2023-05-12T00:51:22.243Z,100.00
2023-05-12T00:54:23.932Z,100.00
2023-05-12T00:57:27.963Z,100.00
2023-05-12T01:00:30.465Z,100.00
2023-05-12T01:03:34.191Z,100.00
2023-05-12T01:06:40.022Z,100.00
2023-05-12T01:09:43.137Z,100.00
2023-05-12T01:12:45.736Z,100.00
2023-05-12T01:15:48.287Z,100.00
2023-05-12T01:18:53.421Z,100.00
2023-05-12T01:21:55.934Z,100.00
2023-05-12T01:24:59.120Z,100.00
2023-05-12T01:28:04.333Z,100.00
2023-05-12T01:31:07.473Z,100.00
2023-05-12T01:34:14.275Z,100.00
2023-05-12T01:37:16.332Z,100.00
2023-05-12T01:40:19.520Z,100.00
2023-05-12T01:43:22.778Z,100.00
2023-05-12T01:46:24.731Z,100.00
2023-05-12T01:49:28.847Z,100.00
2023-05-12T01:52:30.758Z,100.00
2023-05-12T01:55:32.598Z,100.00
2023-05-12T01:58:35.699Z,100.00
2023-05-12T02:01:37.652Z,100.00
2023-05-12T02:04:40.625Z,100.00
2023-05-12T02:07:42.582Z,100.00
2023-05-12T02:10:45.831Z,100.00
2023-05-12T02:13:49.295Z,100.00
2023-05-12T02:16:52.858Z,100.00
2023-05-12T02:19:56.155Z,100.00
2023-05-12T02:22:58.114Z,100.00
2023-05-12T02:25:59.878Z,100.00
2023-05-12T02:29:02.971Z,100.00
2023-05-12T02:32:05.132Z,100.00
2023-05-12T02:35:07.675Z,100.00
2023-05-12T02:38:11.531Z,100.00
2023-05-12T02:41:13.495Z,100.00
2023-05-12T02:44:17.918Z,100.00
2023-05-12T02:47:19.629Z,100.00
2023-05-12T02:50:21.967Z,100.00
2023-05-12T02:53:24.066Z,100.00
2023-05-12T02:56:26.448Z,100.00
2023-05-12T02:59:30.518Z,100.00
2023-05-12T03:02:32.453Z,100.00
2023-05-12T03:05:34.384Z,100.00
2023-05-12T03:08:36.457Z,100.00
2023-05-12T03:11:41.135Z,100.00
2023-05-12T03:14:44.603Z,100.00
2023-05-12T03:17:46.472Z,100.00
2023-05-12T03:20:48.399Z,100.00
2023-05-12T03:23:50.252Z,100.00
2023-05-12T03:26:51.943Z,100.00
2023-05-12T03:29:55.081Z,100.00
2023-05-12T03:32:57.208Z,100.00
2023-05-12T03:35:59.244Z,100.00
2023-05-12T03:39:03.106Z,100.00
2023-05-12T03:42:05.142Z,100.00
2023-05-12T03:45:09.525Z,100.00
2023-05-12T03:48:11.344Z,100.00
2023-05-12T03:51:13.096Z,100.00
2023-05-12T03:54:17.232Z,100.00
2023-05-12T03:57:18.860Z,100.00
2023-05-12T04:00:22.412Z,100.00
2023-05-12T04:03:24.453Z,100.00
2023-05-12T04:06:26.308Z,100.00
2023-05-12T04:09:28.050Z,100.00
2023-05-12T04:12:30.225Z,100.00
2023-05-12T04:15:33.734Z,100.00
2023-05-12T04:18:36.924Z,100.00
2023-05-12T04:21:38.675Z,100.00
2023-05-12T04:24:41.061Z,100.00
2023-05-12T04:27:42.954Z,100.00
2023-05-12T04:30:46.248Z,100.00
2023-05-12T04:33:48.596Z,100.00
2023-05-12T04:36:50.441Z,100.00
2023-05-12T04:39:52.754Z,100.00
2023-05-12T04:42:54.966Z,100.00
2023-05-12T04:45:59.969Z,100.00
2023-05-12T04:49:02.473Z,100.00
2023-05-12T04:52:05.824Z,100.00
2023-05-12T04:55:08.801Z,100.00
2023-05-12T04:58:11.303Z,100.00
2023-05-12T05:01:17.102Z,100.00
2023-05-12T05:04:19.553Z,100.00
2023-05-12T05:07:21.519Z,100.00
2023-05-12T05:10:23.529Z,100.00
2023-05-12T05:13:25.382Z,100.00
2023-05-12T05:16:28.851Z,100.00
2023-05-12T05:22:39.481Z,100.00
2023-05-12T05:25:42.203Z,100.00
2023-05-12T05:28:45.400Z,100.00
2023-05-12T05:31:48.547Z,100.00
2023-05-12T05:34:50.789Z,100.00
2023-05-12T05:37:54.606Z,100.00
2023-05-12T05:40:58.029Z,100.00
2023-05-12T05:44:01.645Z,100.00
2023-05-12T05:47:06.177Z,100.00
2023-05-12T05:50:08.924Z,100.00
2023-05-12T05:53:13.279Z,100.00
2023-05-12T05:56:15.651Z,100.00
2023-05-12T05:59:17.703Z,100.00
2023-05-12T06:02:23.294Z,100.00
2023-05-12T06:05:24.970Z,100.00
2023-05-12T06:08:26.746Z,100.00
2023-05-12T06:11:29.489Z,100.00
2023-05-12T06:14:31.288Z,100.00
2023-05-12T06:17:34.640Z,100.00
2023-05-12T06:20:37.376Z,100.00
2023-05-12T06:23:39.107Z,100.00
2023-05-12T06:26:41.029Z,100.00
2023-05-12T06:29:42.792Z,100.00
2023-05-12T06:32:46.336Z,100.00
2023-05-12T06:35:48.497Z,100.00
2023-05-12T06:38:51.027Z,100.00
2023-05-12T06:41:52.686Z,100.00
2023-05-12T06:44:56.082Z,100.00
2023-05-12T06:47:59.332Z,100.00
2023-05-12T06:51:02.406Z,100.00
2023-05-12T06:54:04.010Z,100.00
2023-05-12T06:57:06.081Z,100.00
2023-05-12T07:00:10.498Z,100.00
2023-05-12T07:03:13.925Z,100.00
2023-05-12T07:06:15.815Z,100.00
2023-05-12T07:09:18.858Z,100.00
2023-05-12T07:12:20.958Z,100.00
2023-05-12T07:15:23.091Z,100.00
2023-05-12T07:18:26.586Z,100.00
2023-05-12T07:21:29.640Z,100.00
2023-05-12T07:24:31.322Z,100.00
2023-05-12T07:27:33.078Z,100.00
2023-05-12T07:30:34.942Z,100.00
2023-05-12T07:33:38.673Z,100.00
2023-05-12T07:36:40.519Z,100.00
2023-05-12T07:39:42.089Z,100.00
2023-05-12T07:42:44.133Z,100.00
2023-05-12T07:45:46.114Z,100.00
2023-05-12T07:48:49.207Z,100.00
2023-05-12T07:51:50.928Z,100.00
2023-05-12T07:54:52.968Z,100.00
2023-05-12T07:57:54.787Z,100.00
2023-05-12T08:00:59.028Z,100.00
2023-05-12T08:04:01.966Z,100.00
2023-05-12T08:07:03.895Z,100.00
2023-05-12T08:10:06.564Z,100.00
2023-05-12T08:13:08.286Z,100.00
2023-05-12T08:16:09.853Z,100.00
2023-05-12T08:19:13.200Z,100.00
2023-05-12T08:22:14.938Z,100.00
2023-05-12T08:25:16.713Z,100.00
2023-05-12T08:28:18.619Z,100.00
2023-05-12T08:31:21.038Z,100.00
2023-05-12T08:34:24.399Z,100.00
2023-05-12T08:37:26.627Z,100.00
2023-05-12T08:40:30.323Z,100.00
2023-05-12T08:43:38.006Z,100.00
2023-05-12T08:46:39.823Z,100.00
2023-05-12T08:49:44.168Z,100.00
2023-05-12T08:52:46.029Z,100.00
2023-05-12T08:56:01.150Z,100.00
2023-05-12T08:59:09.970Z,100.00
2023-05-12T09:02:11.934Z,100.00
2023-05-12T09:05:15.250Z,100.00
2023-05-12T09:08:16.961Z,100.00
2023-05-12T09:11:20.438Z,100.00
2023-05-12T09:14:25.451Z,100.00
2023-05-12T09:17:27.322Z,100.00
2023-05-12T09:20:31.858Z,100.00
2023-05-12T09:23:35.272Z,100.00
2023-05-12T09:26:45.312Z,100.00
2023-05-12T09:29:59.258Z,100.00
2023-05-12T09:33:08.488Z,100.00
2023-05-12T09:36:11.765Z,100.00
2023-05-12T09:39:13.554Z,100.00
2023-05-12T09:42:15.818Z,100.00
2023-05-12T09:45:17.554Z,100.00
2023-05-12T09:48:19.200Z,100.00
2023-05-12T09:51:22.335Z,100.00
2023-05-12T09:54:24.406Z,100.00
2023-05-12T09:57:26.388Z,100.00
2023-05-12T10:00:43.281Z,100.00
2023-05-12T10:03:51.169Z,100.00
2023-05-12T10:06:56.421Z,99.09
2023-05-12T10:09:59.831Z,99.52
2023-05-12T10:13:01.862Z,100.00
2023-05-12T10:16:06.980Z,98.87
2023-05-12T10:19:09.063Z,94.90
2023-05-12T10:22:15.869Z,97.50
2023-05-12T10:25:17.921Z,96.73
2023-05-12T10:28:20.364Z,95.84
2023-05-12T10:31:23.070Z,94.28
2023-05-12T10:34:30.889Z,94.38
2023-05-12T10:37:34.996Z,90.97
2023-05-12T10:40:37.111Z,89.06
2023-05-12T10:43:39.463Z,91.65
2023-05-12T10:46:42.002Z,91.07
2023-05-12T10:49:44.117Z,89.45
2023-05-12T10:52:54.590Z,89.07
2023-05-12T10:55:57.039Z,89.58
2023-05-12T10:59:10.218Z,88.10
2023-05-12T11:02:15.801Z,88.68
2023-05-12T11:05:17.984Z,85.54
2023-05-12T11:08:21.610Z,81.70
2023-05-12T11:11:25.018Z,83.00
2023-05-12T11:14:27.343Z,78.86
2023-05-12T11:17:29.329Z,78.86
2023-05-12T11:20:31.299Z,82.34
2023-05-12T11:23:37.887Z,75.69
2023-05-12T11:26:40.851Z,76.58
2023-05-12T11:29:42.808Z,78.44
2023-05-12T11:32:44.677Z,75.39
2023-05-12T11:35:46.830Z,76.70
2023-05-12T11:38:50.627Z,74.67
2023-05-12T11:41:59.248Z,70.17
2023-05-12T11:45:02.058Z,72.06
2023-05-12T11:51:35.047Z,67.22
2023-05-12T11:54:38.963Z,66.11
2023-05-12T11:57:45.203Z,64.62
2023-05-12T12:00:47.431Z,64.74
2023-05-12T12:03:50.574Z,63.16
2023-05-12T12:06:52.322Z,63.45
2023-05-12T12:09:56.365Z,61.68
2023-05-12T12:12:59.512Z,60.62
2023-05-12T12:16:01.590Z,59.70
2023-05-12T12:19:03.226Z,57.87
2023-05-12T12:22:05.202Z,59.40
2023-05-12T12:25:09.074Z,58.95
2023-05-12T12:28:11.139Z,58.65
2023-05-12T12:31:14.433Z,60.05
2023-05-12T12:34:16.323Z,58.14
2023-05-12T12:37:18.386Z,59.76
2023-05-12T12:40:21.454Z,58.87
2023-05-12T12:43:23.334Z,59.09
2023-05-12T12:46:25.057Z,58.29
2023-05-12T12:49:27.542Z,58.95
2023-05-12T12:52:29.123Z,56.30
2023-05-12T12:55:32.369Z,55.21
2023-05-12T12:58:34.036Z,55.06
2023-05-12T13:01:36.054Z,56.21
2023-05-12T13:04:37.724Z,55.16
2023-05-12T13:07:39.467Z,50.45
2023-05-12T13:10:43.677Z,50.87
2023-05-12T13:13:45.890Z,49.58
2023-05-12T13:16:47.575Z,51.75
2023-05-12T13:19:49.469Z,51.95
2023-05-12T13:22:51.280Z,52.07
2023-05-12T13:25:54.461Z,51.63
2023-05-12T13:28:56.141Z,52.35
2023-05-12T13:31:58.055Z,50.95
2023-05-12T13:35:00.151Z,52.00
2023-05-12T13:38:02.075Z,53.26
2023-05-12T13:41:05.171Z,53.56
2023-05-12T13:44:06.821Z,53.10
2023-05-12T13:47:09.408Z,51.78
2023-05-12T13:50:11.091Z,53.01
2023-05-12T13:53:13.505Z,53.54
2023-05-12T13:56:17.080Z,53.67
2023-05-12T13:59:18.857Z,53.04
2023-05-12T14:02:22.089Z,54.54
2023-05-12T14:05:24.631Z,51.71
2023-05-12T14:08:26.575Z,52.79
2023-05-12T14:11:29.877Z,51.46
2023-05-12T14:14:35.835Z,50.10
2023-05-12T14:17:37.869Z,50.25
2023-05-12T14:20:39.794Z,47.18
2023-05-12T14:23:41.837Z,50.35
2023-05-12T14:26:49.771Z,49.45
2023-05-12T14:29:51.513Z,50.12
2023-05-12T14:32:53.747Z,49.41
2023-05-12T14:36:05.808Z,50.40
2023-05-12T14:39:09.822Z,50.23
2023-05-12T14:42:13.350Z,49.32
2023-05-12T14:45:15.155Z,50.44
2023-05-12T14:48:16.869Z,50.18
2023-05-12T14:51:21.339Z,51.18
2023-05-12T14:54:25.900Z,50.96
2023-05-12T14:57:29.341Z,50.95
2023-05-12T15:00:31.663Z,49.12
2023-05-12T15:03:33.932Z,48.23
2023-05-12T15:06:35.993Z,48.17
2023-05-12T15:09:37.596Z,52.49
2023-05-12T15:12:40.761Z,47.76
2023-05-12T15:15:42.420Z,48.88
2023-05-12T15:18:45.014Z,49.37
2023-05-12T15:21:47.013Z,46.85
2023-05-12T15:24:48.887Z,46.46
2023-05-12T15:27:51.890Z,46.44
2023-05-12T15:30:58.323Z,45.45
2023-05-12T15:34:00.656Z,44.30
2023-05-12T15:37:02.525Z,43.83
2023-05-12T15:40:05.357Z,45.43
2023-05-12T15:43:08.556Z,44.03
2023-05-12T15:46:11.550Z,45.68
2023-05-12T15:49:13.561Z,43.48
2023-05-12T15:52:15.225Z,44.52
2023-05-12T15:55:17.135Z,43.74
2023-05-12T15:58:20.000Z,44.44
2023-05-12T16:01:22.692Z,43.66
2023-05-12T16:04:25.235Z,43.83
2023-05-12T16:07:31.091Z,44.93
2023-05-12T16:10:34.923Z,44.58
2023-05-12T16:13:37.988Z,45.60
2023-05-12T16:16:43.254Z,44.88
2023-05-12T16:19:45.212Z,45.12
2023-05-12T16:22:47.122Z,45.85
2023-05-12T16:25:49.000Z,44.57
2023-05-12T16:28:52.208Z,44.60
2023-05-12T16:31:53.936Z,45.16
2023-05-12T16:34:56.786Z,44.99
2023-05-12T16:37:58.391Z,45.41
2023-05-12T16:41:00.160Z,44.72
2023-05-12T16:44:03.211Z,44.06
2023-05-12T16:47:05.469Z,44.75
2023-05-12T16:50:07.970Z,45.04
2023-05-12T16:53:09.968Z,45.14
2023-05-12T16:56:12.167Z,45.20
2023-05-12T16:59:15.545Z,44.43
2023-05-12T17:02:17.406Z,44.96
2023-05-12T17:05:19.576Z,44.93
2023-05-12T17:08:21.698Z,45.57
2023-05-12T17:11:25.551Z,45.83
2023-05-12T17:14:28.802Z,47.88
2023-05-12T17:17:30.926Z,45.77
2023-05-12T17:20:32.624Z,46.52
2023-05-12T17:23:34.821Z,47.00
2023-05-12T17:26:36.923Z,46.71
2023-05-12T17:29:40.456Z,47.68
2023-05-12T17:32:42.930Z,47.52
2023-05-12T17:35:53.572Z,47.56
2023-05-12T17:39:05.839Z,47.64
2023-05-12T17:42:07.675Z,46.72
2023-05-12T17:45:11.665Z,47.54
2023-05-12T17:48:13.923Z,47.87
2023-05-12T17:51:16.517Z,49.36
2023-05-12T17:54:28.667Z,48.36
2023-05-12T17:57:34.657Z,49.22
2023-05-12T18:00:37.893Z,49.48
2023-05-12T18:03:39.947Z,50.22
2023-05-12T18:06:41.683Z,50.11
2023-05-12T18:09:43.537Z,51.10
2023-05-12T18:12:45.160Z,50.78
2023-05-12T18:15:50.596Z,51.55
2023-05-12T18:18:53.138Z,51.51
2023-05-12T18:21:54.876Z,51.56
2023-05-12T18:24:56.534Z,51.90
2023-05-12T18:27:58.628Z,52.43
2023-05-12T18:31:09.233Z,52.68
2023-05-12T18:34:17.582Z,53.50
2023-05-12T18:37:19.462Z,53.87
2023-05-12T18:40:21.238Z,54.69
2023-05-12T18:43:23.035Z,54.22
2023-05-12T18:46:26.139Z,54.55
2023-05-12T18:49:28.164Z,54.98
2023-05-12T18:52:29.741Z,55.91
2023-05-12T18:55:31.273Z,57.09
2023-05-12T18:58:33.179Z,57.17
2023-05-12T19:01:36.428Z,58.46
2023-05-12T19:04:38.311Z,59.75
2023-05-12T19:07:40.091Z,59.32
2023-05-12T19:10:47.514Z,59.94
2023-05-12T19:13:50.807Z,59.75
2023-05-12T19:16:54.261Z,59.14
2023-05-12T19:19:55.864Z,58.09
2023-05-12T19:22:57.464Z,58.04
2023-05-12T19:25:59.199Z,57.75
2023-05-12T19:29:02.081Z,57.80
2023-05-12T19:32:05.927Z,59.89
2023-05-12T19:35:10.617Z,61.27
2023-05-12T19:38:12.438Z,62.52
2023-05-12T19:41:13.973Z,61.65
2023-05-12T19:44:15.446Z,60.92
2023-05-12T19:47:19.006Z,60.29
2023-05-12T19:50:21.266Z,59.52
2023-05-12T19:53:26.891Z,60.39
2023-05-12T19:56:29.389Z,60.48
2023-05-12T19:59:31.515Z,60.01
2023-05-12T20:02:34.786Z,60.58
2023-05-12T20:05:37.703Z,59.30
2023-05-12T20:08:39.397Z,58.70
2023-05-12T20:11:40.997Z,58.56
2023-05-12T20:14:43.725Z,59.61
2023-05-12T20:17:47.150Z,58.82
2023-05-12T20:20:49.394Z,58.32
2023-05-12T20:23:51.178Z,58.19
2023-05-12T20:26:53.158Z,58.86
2023-05-12T20:29:54.813Z,58.66
2023-05-12T20:32:58.396Z,59.19
2023-05-12T20:36:00.050Z,59.00
2023-05-12T20:39:01.704Z,58.93
2023-05-12T20:42:04.314Z,59.13
2023-05-12T20:45:06.653Z,58.59
2023-05-12T20:48:10.194Z,59.00
2023-05-12T20:51:12.398Z,58.81
2023-05-12T20:54:18.004Z,59.29
2023-05-12T20:57:20.349Z,58.82
2023-05-12T21:00:22.677Z,59.14
2023-05-12T21:03:27.448Z,59.26
2023-05-12T21:06:30.084Z,58.95
2023-05-12T21:09:33.640Z,59.04
2023-05-12T21:12:35.731Z,60.58
2023-05-12T21:15:37.290Z,59.54
2023-05-12T21:18:40.935Z,59.47
2023-05-12T21:21:42.998Z,59.66
2023-05-12T21:24:44.630Z,59.52
2023-05-12T21:27:48.339Z,59.32
2023-05-12T21:30:51.048Z,59.41
2023-05-12T21:33:54.300Z,59.32
2023-05-12T21:36:56.451Z,59.48
2023-05-12T21:39:58.256Z,59.69
2023-05-12T21:43:00.135Z,59.58
2023-05-12T21:46:02.328Z,59.60
2023-05-12T21:49:05.387Z,59.62
2023-05-12T21:52:07.572Z,59.81
2023-05-12T21:55:09.729Z,59.88
2023-05-12T21:58:11.841Z,59.99
2023-05-12T22:01:14.563Z,60.53
2023-05-12T22:04:21.998Z,60.28
2023-05-12T22:07:23.638Z,60.19
2023-05-12T22:10:30.914Z,59.95
2023-05-12T22:13:32.804Z,59.95
2023-05-12T22:16:41.380Z,60.04
2023-05-12T22:19:45.740Z,60.02
2023-05-12T22:22:47.506Z,59.85
2023-05-12T22:25:49.579Z,59.93
2023-05-12T22:28:51.426Z,59.78
2023-05-12T22:31:53.157Z,59.50
2023-05-12T22:34:56.464Z,59.39
2023-05-12T22:37:59.082Z,59.40
2023-05-12T22:41:01.056Z,59.24
2023-05-12T22:44:03.317Z,59.15
2023-05-12T22:47:06.270Z,59.19
2023-05-12T22:50:10.215Z,59.14
2023-05-12T22:53:12.019Z,59.11
2023-05-12T22:56:13.614Z,59.04
2023-05-12T22:59:15.804Z,58.98
2023-05-12T23:02:17.979Z,59.22
2023-05-12T23:05:21.277Z,59.41
2023-05-12T23:08:23.055Z,59.26
2023-05-12T23:11:26.052Z,59.50
2023-05-12T23:14:28.433Z,59.51
2023-05-12T23:17:30.176Z,59.62
2023-05-12T23:20:33.980Z,59.80
2023-05-12T23:23:35.958Z,59.75
2023-05-12T23:26:37.857Z,59.68
2023-05-12T23:29:39.474Z,59.89
2023-05-12T23:32:42.471Z,60.22
2023-05-12T23:35:49.818Z,60.25
2023-05-12T23:39:11.909Z,59.82
2023-05-12T23:42:13.677Z,59.96
2023-05-12T23:45:15.931Z,59.88
2023-05-12T23:48:17.740Z,59.98
2023-05-12T23:51:21.331Z,60.13
2023-05-12T23:54:23.086Z,59.83
2023-05-12T23:57:24.973Z,59.91
